Decoded Metar for KJKL (NOCTOR/JACKSON in KY, USA) (IATA:JKL) | Meteo·Mobile Aviation Weather
aviador You're here:

KJKL Decoded Metar

NOCTOR/JACKSON in KY, USA
Report Time2019-02-16 17:05:00
UTC Time2019-02-16 17:14:58
Flight Rules mvfr MVFR
Wind030° at 03 kt
W.Decomp.*RWY 01: 2.7 kt HW 1.2 kt RCW
W.Rank030° ranks 24
Current wind is below 030° avg. (4.1)
Visibility9999 m
Phenomena:N/A
Clouds:Broken 014 Hf
Expected CloudBase > 1,200 ft AGL from Temp-Dew spread
Ceiling1,400 ft
Temp01°C (ISA -11)
Dew Point-2°C (81% RH)
AAT-2.3°C
QNH1014 hPa
Density Alt36 ft
Elevation1,365 ft
Report Wrong Elevation
Raw Report
KJKL 161705Z AUTO 03003KT 10SM BKN014 01/M02 A2995 RMK AO2
T00111022=

Extra information for KJKL:More info

Metar Taf Metar & Taf Last 4 Metars F.Rules Stats Wind Profile Meteogram Temp Stats Airport Information Weather charts Add Link Nearby VenuesMetar ALERT Operation Metar Decoded Social comments

AIRNAV info for KJKL